»·PEaware :: SWA1649 KLAS-KSLC

SWA1649 :: KLAS-KSLC

FLIGHT INFORMATION

Flight Status: Arrived
Operator:
Southwest Airlines
More flights by this operator :: More flights under this callsign
Pilot: Walter P. (10403)
Aircraft: BOEING 737-300
(B733)
More flights by this aircraft type
Origin: KLAS McCarran Intl
United States
Destination: KSLC Salt Lake City Intl
United States
More flights between these airports :: More routes between these airports
Route: +STAAV8 MLF QWENN5
File this flight plan on PilotEdge
Remarks:
Altitude:
(Current/Filed)
31,000ft
Speed:
(Current/Filed)
400kts
Departed: 08-Apr-18 04:44 PM
Arrived: 08-Apr-18 05:46 PM
Distance/Time
Traveled:
319nm/1:02
Distance/Time
To Go:
Arrived

Flight Plot

Page will automatically refresh every two minutes.

Flight plan parsing failed; only flown route is shown


Map Options




Map Legend


Flown Route
Filed Route
Departure Airport
Arrival Airport
Navaid (VOR, NDB)
Fix

Horizontal Profiles

Position Reports

Time Latitude Longitude Heading Altitude Ground
Speed
08-Apr-18 16:06 36.080942 -115.145941 270 2091ft 0kts
08-Apr-18 16:07 36.080942 -115.145941 270 2091ft 0kts
08-Apr-18 16:08 36.080942 -115.145941 270 2091ft 0kts
08-Apr-18 16:09 36.080942 -115.145941 270 2091ft 0kts
08-Apr-18 16:10 36.080942 -115.145941 270 2091ft 0kts
08-Apr-18 16:11 36.080942 -115.145941 270 2091ft 0kts
08-Apr-18 16:12 36.080942 -115.145941 270 2091ft 0kts
08-Apr-18 16:13 36.080942 -115.145941 270 2091ft 0kts
08-Apr-18 16:14 36.080942 -115.145941 270 2091ft 0kts
08-Apr-18 16:15 36.080942 -115.145941 270 2091ft 0kts
08-Apr-18 16:16 36.080942 -115.145941 270 2091ft 0kts
08-Apr-18 16:17 36.080942 -115.145941 270 2091ft 0kts
08-Apr-18 16:18 36.080942 -115.145941 270 2091ft 0kts
08-Apr-18 16:19 36.080942 -115.145941 270 2091ft 0kts
08-Apr-18 16:20 36.080942 -115.145941 270 2091ft 0kts
08-Apr-18 16:21 36.080942 -115.145941 270 2091ft 0kts
08-Apr-18 16:22 36.080942 -115.145941 270 2091ft 0kts
08-Apr-18 16:23 36.080942 -115.145941 270 2091ft 0kts
08-Apr-18 16:24 36.080942 -115.145941 270 2091ft 0kts
08-Apr-18 16:25 36.080942 -115.145941 270 2091ft 0kts
08-Apr-18 16:26 36.080942 -115.145941 270 2091ft 0kts
08-Apr-18 16:27 36.080942 -115.145871 270 2090ft 2kts
08-Apr-18 16:28 36.080936 -115.145190 266 2088ft 1kts
08-Apr-18 16:29 36.081145 -115.145118 156 2087ft 0kts
08-Apr-18 16:30 36.081145 -115.145118 156 2087ft 0kts
08-Apr-18 16:31 36.081145 -115.145118 156 2087ft 0kts
08-Apr-18 16:32 36.081144 -115.145118 156 2087ft 0kts
08-Apr-18 16:33 36.081144 -115.145118 156 2087ft 0kts
08-Apr-18 16:34 36.080760 -115.144913 161 2087ft 6kts
08-Apr-18 16:35 36.078527 -115.144753 147 2092ft 10kts
08-Apr-18 16:36 36.078278 -115.138383 89 2073ft 25kts
08-Apr-18 16:37 36.078287 -115.129162 90 2048ft 25kts
08-Apr-18 16:38 36.077581 -115.121625 131 2035ft 9kts
08-Apr-18 16:39 36.077507 -115.121523 134 2035ft 0kts
08-Apr-18 16:40 36.077507 -115.121523 134 2035ft 0kts
08-Apr-18 16:41 36.077483 -115.121493 134 2035ft 2kts
08-Apr-18 16:42 36.076447 -115.124438 266 2040ft 36kts
08-Apr-18 16:43 36.076181 -115.164810 273 2515ft 156kts
08-Apr-18 16:44 36.073725 -115.221651 278 3687ft 166kts
08-Apr-18 16:45 36.083777 -115.278158 318 4490ft 197kts
08-Apr-18 16:46 36.141270 -115.294813 15 6010ft 232kts
08-Apr-18 16:47 36.181672 -115.232437 64 7734ft 275kts
08-Apr-18 16:48 36.197029 -115.136416 87 9769ft 303kts
08-Apr-18 16:49 36.198234 -115.022412 86 10861ft 363kts
08-Apr-18 16:50 36.199584 -114.896151 86 13053ft 382kts
08-Apr-18 16:51 36.218039 -114.768476 43 15163ft 380kts
08-Apr-18 16:52 36.300062 -114.687682 30 17352ft 384kts
08-Apr-18 16:53 36.385397 -114.606300 29 19371ft 398kts
08-Apr-18 16:54 36.474216 -114.522129 29 21246ft 411kts
08-Apr-18 16:55 36.567123 -114.437644 23 22863ft 418kts
08-Apr-18 16:56 36.665153 -114.362309 23 22968ft 417kts
08-Apr-18 16:57 36.762474 -114.286686 23 24470ft 428kts
08-Apr-18 16:58 36.863630 -114.208058 22 25885ft 439kts
08-Apr-18 16:59 36.968457 -114.126316 22 27193ft 450kts
08-Apr-18 17:00 37.074894 -114.042996 23 28798ft 450kts
08-Apr-18 17:01 37.176664 -113.963254 23 30516ft 442kts
08-Apr-18 17:02 37.279950 -113.882021 22 31028ft 442kts
08-Apr-18 17:03 37.382870 -113.800643 22 30996ft 439kts
08-Apr-18 17:04 37.485643 -113.719180 21 31001ft 440kts
08-Apr-18 17:05 37.588848 -113.637332 22 31041ft 439kts
08-Apr-18 17:06 37.691917 -113.554987 22 31077ft 440kts
08-Apr-18 17:07 37.794733 -113.472389 22 31074ft 439kts
08-Apr-18 17:08 37.896835 -113.390347 21 31074ft 438kts
08-Apr-18 17:09 37.989816 -113.315140 22 31068ft 438kts
08-Apr-18 17:10 38.092108 -113.232187 21 31057ft 439kts
08-Apr-18 17:11 38.190532 -113.152347 21 31057ft 439kts
08-Apr-18 17:12 38.293097 -113.068708 20 31061ft 436kts
08-Apr-18 17:13 38.396129 -112.993431 10 31053ft 420kts
08-Apr-18 17:14 38.503809 -112.936982 10 31056ft 421kts
08-Apr-18 17:15 38.611253 -112.879678 10 31056ft 421kts
08-Apr-18 17:16 38.718462 -112.822244 10 31056ft 421kts
08-Apr-18 17:17 38.825652 -112.764610 9 31048ft 414kts
08-Apr-18 17:18 38.928407 -112.709053 9 31093ft 417kts
08-Apr-18 17:19 39.034688 -112.651526 9 31092ft 416kts
08-Apr-18 17:20 39.137173 -112.595939 9 31084ft 417kts
08-Apr-18 17:21 39.232083 -112.544297 9 31093ft 416kts
08-Apr-18 17:22 39.333623 -112.488039 10 29271ft 416kts
08-Apr-18 17:23 39.437638 -112.428222 11 26541ft 407kts
08-Apr-18 17:24 39.536728 -112.371237 11 24494ft 385kts
08-Apr-18 17:25 39.629908 -112.317362 13 22448ft 386kts
08-Apr-18 17:26 39.722641 -112.263500 13 20506ft 365kts
08-Apr-18 17:27 39.809112 -112.213388 14 18707ft 361kts
08-Apr-18 17:28 39.896044 -112.162958 15 16843ft 359kts
08-Apr-18 17:29 39.972301 -112.118358 17 15282ft 346kts
08-Apr-18 17:30 40.058209 -112.066456 18 13790ft 347kts
08-Apr-18 17:31 40.139626 -112.017320 19 12698ft 342kts
08-Apr-18 17:32 40.224382 -111.966000 20 11064ft 335kts
08-Apr-18 17:33 40.308590 -111.936907 0 11000ft 330kts
08-Apr-18 17:34 40.389896 -111.929781 355 11039ft 281kts
08-Apr-18 17:35 40.459450 -111.935677 349 11013ft 253kts
08-Apr-18 17:36 40.524557 -111.944393 350 10563ft 245kts
08-Apr-18 17:37 40.583477 -111.951080 350 9657ft 213kts
08-Apr-18 17:38 40.636173 -111.957159 350 8436ft 196kts
08-Apr-18 17:39 40.678948 -111.980297 277 7125ft 187kts
08-Apr-18 17:40 40.640162 -112.001913 132 6200ft 213kts
08-Apr-18 17:41 40.656076 -111.953512 355 6119ft 192kts
08-Apr-18 17:42 40.705159 -111.963767 355 5971ft 180kts
08-Apr-18 17:43 40.746839 -111.969869 355 4757ft 148kts
08-Apr-18 17:44 40.783098 -111.974200 355 4234ft 123kts
08-Apr-18 17:45 40.796635 -111.977533 221 4234ft 16kts
08-Apr-18 17:46 40.792555 -111.977368 176 4234ft 14kts
08-Apr-18 17:47 40.790943 -111.978750 175 4234ft 10kts
08-Apr-18 17:48 40.788319 -111.979950 200 4234ft 12kts
08-Apr-18 17:49 40.788098 -111.980907 283 4234ft 2kts
08-Apr-18 17:50 40.788109 -111.980969 280 4234ft 0kts
08-Apr-18 17:51 40.788109 -111.980969 280 4234ft 0kts
08-Apr-18 17:52 40.788109 -111.980969 280 4234ft 0kts
08-Apr-18 17:53 40.788109 -111.980969 280 4234ft 0kts
08-Apr-18 17:54 40.788109 -111.980969 280 4234ft 0kts
08-Apr-18 17:55 40.788109 -111.980969 280 4234ft 0kts
08-Apr-18 17:56 40.788109 -111.980969 280 4234ft 0kts
08-Apr-18 17:57 40.788109 -111.980969 280 4234ft 0kts
08-Apr-18 17:58 40.788109 -111.980969 280 4234ft 0kts
08-Apr-18 17:59 40.788109 -111.980969 280 4234ft 0kts
08-Apr-18 18:00 40.788109 -111.980969 280 4234ft 0kts

Navigation Log

Ident Type
Flight plan parsing failed, navigation log unavailable